Time,TemperatureF,DewpointF,PressureIn,WindDirection,WindDirectionDegrees,WindSpeedMPH,WindSpeedGustMPH,Humidity,HourlyPrecipIn,Conditions,Clouds,dailyrainin,SoftwareType,DateUTC
2013-02-17 00:00:00,30.3,15.2,29.70,North,355,3.0,3.0,53,0.00,,,0.07,Wunderground v.1.15,2013-02-17 05:00:00,
2013-02-17 00:05:00,30.3,14.8,29.69,WNW,298,4.0,4.0,52,0.00,,,0.00,Wunderground v.1.15,2013-02-17 05:05:00,
2013-02-17 00:10:00,30.3,15.2,29.69,North,360,4.0,4.0,53,0.00,,,0.00,Wunderground v.1.15,2013-02-17 05:10:00,
2013-02-17 00:15:00,30.1,15.0,29.69,NNW,335,3.0,4.0,53,0.00,,,0.00,Wunderground v.1.15,2013-02-17 05:15:00,
2013-02-17 00:25:00,30.1,14.6,29.70,NNW,334,3.0,11.0,52,0.00,,,0.00,Wunderground v.1.15,2013-02-17 05:25:00,
2013-02-17 00:35:00,30.0,14.0,29.69,NW,321,3.0,7.0,51,0.00,,,0.00,Wunderground v.1.15,2013-02-17 05:35:00,
2013-02-17 00:45:00,29.8,14.3,29.69,NNE,16,3.0,5.0,52,0.00,,,0.00,Wunderground v.1.15,2013-02-17 05:45:00,
2013-02-17 00:55:00,29.8,13.9,29.68,NE,52,3.0,4.0,51,0.00,,,0.00,Wunderground v.1.15,2013-02-17 05:55:00,
2013-02-17 01:05:00,29.5,12.7,29.67,North,10,4.0,6.0,49,0.00,,,0.00,Wunderground v.1.15,2013-02-17 06:05:00,
2013-02-17 01:15:00,29.4,12.1,29.67,NNE,15,4.0,5.0,48,0.00,,,0.00,Wunderground v.1.15,2013-02-17 06:15:00,
2013-02-17 01:25:00,29.3,12.9,29.67,ENE,63,4.0,4.0,50,0.00,,,0.00,Wunderground v.1.15,2013-02-17 06:25:00,
2013-02-17 01:35:00,29.1,12.3,29.67,NNE,19,5.0,10.0,49,0.00,,,0.00,Wunderground v.1.15,2013-02-17 06:35:00,
2013-02-17 01:45:00,29.0,12.2,29.67,ENE,73,4.0,4.0,49,0.00,,,0.00,Wunderground v.1.15,2013-02-17 06:45:00,
2013-02-17 01:55:00,28.8,12.0,29.67,NE,38,5.0,10.0,49,0.00,,,0.00,Wunderground v.1.15,2013-02-17 06:55:00,
2013-02-17 02:05:00,28.7,12.4,29.68,North,360,4.0,7.0,50,0.00,,,0.00,Wunderground v.1.15,2013-02-17 07:05:00,
2013-02-17 02:15:00,28.5,12.6,29.68,North,355,4.0,4.0,51,0.00,,,0.00,Wunderground v.1.15,2013-02-17 07:15:00,
2013-02-17 02:25:00,28.4,13.0,29.67,North,5,2.0,7.0,52,0.00,,,0.00,Wunderground v.1.15,2013-02-17 07:25:00,
2013-02-17 02:35:00,28.4,13.4,29.66,NE,46,2.0,3.0,53,0.00,,,0.00,Wunderground v.1.15,2013-02-17 07:35:00,
2013-02-17 02:45:00,28.2,13.2,29.66,NE,36,3.0,3.0,53,0.00,,,0.00,Wunderground v.1.15,2013-02-17 07:45:00,
2013-02-17 02:55:00,28.1,11.8,29.66,SE,131,2.0,4.0,50,0.00,,,0.00,Wunderground v.1.15,2013-02-17 07:55:00,
2013-02-17 03:05:00,27.9,10.2,29.65,NE,38,5.0,5.0,47,0.00,,,0.00,Wunderground v.1.15,2013-02-17 08:05:00,
2013-02-17 03:15:00,27.9,11.2,29.65,NNW,348,3.0,4.0,49,0.00,,,0.00,Wunderground v.1.15,2013-02-17 08:15:00,
2013-02-17 03:25:00,27.8,10.6,29.65,NW,316,3.0,4.0,48,0.00,,,0.00,Wunderground v.1.15,2013-02-17 08:25:00,
2013-02-17 03:35:00,27.8,10.2,29.65,NE,34,4.0,4.0,47,0.00,,,0.00,Wunderground v.1.15,2013-02-17 08:35:00,
2013-02-17 03:45:00,27.6,10.9,29.65,NNE,26,3.0,3.0,49,0.00,,,0.00,Wunderground v.1.15,2013-02-17 08:45:00,
2013-02-17 03:55:00,27.5,10.4,29.65,ESE,107,4.0,7.0,48,0.00,,,0.00,Wunderground v.1.15,2013-02-17 08:55:00,
2013-02-17 04:10:00,27.5,10.4,29.65,NNW,336,5.0,5.0,48,0.00,,,0.00,Wunderground v.1.15,2013-02-17 09:10:00,
2013-02-17 04:15:00,27.3,10.2,29.65,NNE,15,4.0,5.0,48,0.00,,,0.00,Wunderground v.1.15,2013-02-17 09:15:00,
2013-02-17 04:25:00,27.3,10.6,29.65,NW,319,3.0,8.0,49,0.00,,,0.00,Wunderground v.1.15,2013-02-17 09:25:00,
2013-02-17 04:35:00,27.2,11.0,29.65,NE,34,3.0,4.0,50,0.00,,,0.00,Wunderground v.1.15,2013-02-17 09:35:00,
2013-02-17 04:45:00,27.0,10.8,29.65,NW,311,3.0,5.0,50,0.00,,,0.00,Wunderground v.1.15,2013-02-17 09:45:00,
2013-02-17 04:55:00,27.0,10.8,29.64,North,355,3.0,4.0,50,0.00,,,0.00,Wunderground v.1.15,2013-02-17 09:55:00,
2013-02-17 05:05:00,27.0,12.1,29.63,North,350,1.0,2.0,53,0.00,,,0.00,Wunderground v.1.15,2013-02-17 10:05:00,
2013-02-17 05:15:00,26.9,11.2,29.63,NNW,340,1.0,1.0,51,0.00,,,0.00,Wunderground v.1.15,2013-02-17 10:15:00,
2013-02-17 05:25:00,26.9,11.6,29.64,NW,313,3.0,3.0,52,0.00,,,0.00,Wunderground v.1.15,2013-02-17 10:25:00,
2013-02-17 05:35:00,26.7,11.4,29.64,NW,324,3.0,4.0,52,0.00,,,0.00,Wunderground v.1.15,2013-02-17 10:35:00,
2013-02-17 05:45:00,26.6,11.3,29.64,North,360,1.0,2.0,52,0.00,,,0.00,Wunderground v.1.15,2013-02-17 10:45:00,
2013-02-17 05:55:00,26.6,11.7,29.64,North,355,2.0,2.0,53,0.00,,,0.00,Wunderground v.1.15,2013-02-17 10:55:00,
2013-02-17 06:05:00,26.4,11.1,29.63,North,360,2.0,5.0,52,0.00,,,0.00,Wunderground v.1.15,2013-02-17 11:05:00,
2013-02-17 06:15:00,26.4,11.1,29.63,North,360,2.0,2.0,52,0.00,,,0.00,Wunderground v.1.15,2013-02-17 11:15:00,
2013-02-17 06:25:00,26.4,10.7,29.63,North,11,3.0,3.0,51,0.00,,,0.00,Wunderground v.1.15,2013-02-17 11:25:00,
2013-02-17 06:35:00,26.4,10.3,29.63,NNW,338,1.0,2.0,50,0.00,,,0.00,Wunderground v.1.15,2013-02-17 11:35:00,
2013-02-17 06:45:00,26.4,8.9,29.63,NW,307,4.0,4.0,47,0.00,,,0.00,Wunderground v.1.15,2013-02-17 11:45:00,
2013-02-17 06:55:00,26.4,8.9,29.62,NNW,333,4.0,7.0,47,0.00,,,0.00,Wunderground v.1.15,2013-02-17 11:55:00,
2013-02-17 07:05:00,26.6,8.6,29.62,NW,325,5.0,5.0,46,0.00,,,0.00,Wunderground v.1.15,2013-02-17 12:05:00,
2013-02-17 07:15:00,26.6,7.6,29.62,NNW,346,4.0,6.0,44,0.00,,,0.00,Wunderground v.1.15,2013-02-17 12:15:00,
2013-02-17 07:25:00,26.6,8.6,29.62,NNW,333,3.0,5.0,46,0.00,,,0.00,Wunderground v.1.15,2013-02-17 12:25:00,
2013-02-17 07:35:00,26.6,8.6,29.63,North,5,1.0,3.0,46,0.00,,,0.00,Wunderground v.1.15,2013-02-17 12:35:00,
2013-02-17 07:45:00,26.6,6.0,29.63,WNW,290,4.0,4.0,41,0.00,,,0.00,Wunderground v.1.15,2013-02-17 12:45:00,
2013-02-17 07:55:00,26.6,4.4,29.63,North,11,5.0,5.0,38,0.00,,,0.00,Wunderground v.1.15,2013-02-17 12:55:00,
2013-02-17 08:05:00,26.6,4.4,29.64,NW,326,4.0,5.0,38,0.00,,,0.00,Wunderground v.1.15,2013-02-17 13:05:00,
2013-02-17 08:15:00,26.4,3.0,29.64,West,277,5.0,6.0,36,0.00,,,0.00,Wunderground v.1.15,2013-02-17 13:15:00,
2013-02-17 08:25:00,26.4,3.0,29.64,NW,317,7.0,7.0,36,0.00,,,0.00,Wunderground v.1.15,2013-02-17 13:25:00,
2013-02-17 08:35:00,26.4,2.4,29.63,NW,305,6.0,7.0,35,0.00,,,0.00,Wunderground v.1.15,2013-02-17 13:35:00,
2013-02-17 08:45:00,26.4,3.0,29.63,North,5,6.0,9.0,36,0.00,,,0.00,Wunderground v.1.15,2013-02-17 13:45:00,
2013-02-17 08:55:00,26.6,2.6,29.62,NW,322,6.0,6.0,35,0.00,,,0.00,Wunderground v.1.15,2013-02-17 13:55:00,
2013-02-17 09:05:00,26.6,1.3,29.62,NNW,333,6.0,8.0,33,0.00,,,0.00,Wunderground v.1.15,2013-02-17 14:05:00,
2013-02-17 09:15:00,27.2,4.3,29.62,NNW,334,6.0,7.0,37,0.00,,,0.00,Wunderground v.1.15,2013-02-17 14:15:00,
2013-02-17 09:25:00,27.5,2.8,29.63,North,355,7.0,7.0,34,0.00,,,0.00,Wunderground v.1.15,2013-02-17 14:25:00,
2013-02-17 09:35:00,27.6,2.8,29.63,NNW,337,6.0,13.0,34,0.00,,,0.00,Wunderground v.1.15,2013-02-17 14:35:00,
2013-02-17 09:45:00,28.2,5.8,29.63,North,360,6.0,7.0,38,0.00,,,0.00,Wunderground v.1.15,2013-02-17 14:45:00,
2013-02-17 09:55:00,27.9,3.1,29.63,WNW,291,7.0,13.0,34,0.00,,,0.00,Wunderground v.1.15,2013-02-17 14:55:00,
2013-02-17 10:05:00,28.1,3.3,29.63,WSW,246,7.0,10.0,34,0.00,,,0.00,Wunderground v.1.15,2013-02-17 15:05:00,
2013-02-17 10:15:00,28.4,3.6,29.63,West,264,6.0,7.0,34,0.00,,,0.00,Wunderground v.1.15,2013-02-17 15:15:00,
2013-02-17 10:25:00,29.3,5.6,29.63,NW,316,6.0,6.0,36,0.00,,,0.00,Wunderground v.1.15,2013-02-17 15:25:00,
2013-02-17 10:35:00,29.3,3.7,29.63,NNW,340,8.0,9.0,33,0.00,,,0.00,Wunderground v.1.15,2013-02-17 15:35:00,
2013-02-17 10:45:00,29.5,3.2,29.63,North,351,7.0,11.0,32,0.00,,,0.00,Wunderground v.1.15,2013-02-17 15:45:00,
2013-02-17 10:55:00,30.3,4.6,29.64,NNW,337,8.0,8.0,33,0.00,,,0.00,Wunderground v.1.15,2013-02-17 15:55:00,
2013-02-17 11:05:00,30.0,3.0,29.64,West,271,7.0,7.0,31,0.00,,,0.00,Wunderground v.1.15,2013-02-17 16:05:00,
2013-02-17 11:15:00,29.7,3.4,29.64,NNW,329,7.0,13.0,32,0.00,,,0.00,Wunderground v.1.15,2013-02-17 16:15:00,
2013-02-17 11:25:00,30.0,1.5,29.64,WNW,301,7.0,9.0,29,0.00,,,0.00,Wunderground v.1.15,2013-02-17 16:25:00,
2013-02-17 11:35:00,29.7,2.7,29.65,North,360,8.0,8.0,31,0.00,,,0.00,Wunderground v.1.15,2013-02-17 16:35:00,
2013-02-17 11:45:00,30.0,2.3,29.65,WNW,284,8.0,8.0,30,0.00,,,0.00,Wunderground v.1.15,2013-02-17 16:45:00,
2013-02-17 11:55:00,30.4,4.0,29.65,NNE,17,6.0,11.0,32,0.00,,,0.00,Wunderground v.1.15,2013-02-17 16:55:00,
2013-02-17 12:10:00,30.9,2.3,29.65,NNW,346,8.0,11.0,29,0.00,,,0.00,Wunderground v.1.15,2013-02-17 17:10:00,
2013-02-17 12:15:00,31.0,4.5,29.65,West,271,7.0,11.0,32,0.00,,,0.00,Wunderground v.1.15,2013-02-17 17:15:00,
2013-02-17 12:25:00,31.8,2.3,29.65,SE,130,8.0,8.0,28,0.00,,,0.00,Wunderground v.1.15,2013-02-17 17:25:00,
2013-02-17 12:35:00,31.3,2.7,29.65,SW,234,10.0,10.0,29,0.00,,,0.00,Wunderground v.1.15,2013-02-17 17:35:00,
2013-02-17 12:45:00,31.5,4.3,29.65,West,269,9.0,12.0,31,0.00,,,0.00,Wunderground v.1.15,2013-02-17 17:45:00,
2013-02-17 12:55:00,32.9,4.8,29.65,West,280,5.0,14.0,30,0.00,,,0.00,Wunderground v.1.15,2013-02-17 17:55:00,
2013-02-17 13:05:00,31.2,3.3,29.66,NW,309,8.0,8.0,30,0.00,,,0.00,Wunderground v.1.15,2013-02-17 18:05:00,
2013-02-17 13:15:00,31.5,2.8,29.66,NW,317,6.0,7.0,29,0.00,,,0.00,Wunderground v.1.15,2013-02-17 18:15:00,
2013-02-17 13:25:00,31.2,3.3,29.66,WNW,290,8.0,11.0,30,0.00,,,0.00,Wunderground v.1.15,2013-02-17 18:25:00,
2013-02-17 13:35:00,31.2,5.4,29.67,NW,318,7.0,8.0,33,0.00,,,0.00,Wunderground v.1.15,2013-02-17 18:35:00,
2013-02-17 13:45:00,31.3,4.1,29.67,North,355,7.0,13.0,31,0.00,,,0.00,Wunderground v.1.15,2013-02-17 18:45:00,
2013-02-17 13:55:00,30.9,3.0,29.67,North,360,6.0,12.0,30,0.00,,,0.00,Wunderground v.1.15,2013-02-17 18:55:00,
2013-02-17 14:05:00,31.5,5.0,29.67,NNW,340,6.0,11.0,32,0.00,,,0.00,Wunderground v.1.15,2013-02-17 19:05:00,
2013-02-17 14:15:00,30.9,2.3,29.67,NNE,30,7.0,7.0,29,0.00,,,0.00,Wunderground v.1.15,2013-02-17 19:15:00,
2013-02-17 14:25:00,30.1,1.6,29.67,NW,321,8.0,10.0,29,0.00,,,0.00,Wunderground v.1.15,2013-02-17 19:25:00,
2013-02-17 14:35:00,30.1,2.3,29.67,WNW,295,9.0,15.0,30,0.00,,,0.00,Wunderground v.1.15,2013-02-17 19:35:00,
2013-02-17 14:45:00,29.8,2.1,29.67,NW,316,8.0,11.0,30,0.00,,,0.00,Wunderground v.1.15,2013-02-17 19:45:00,
2013-02-17 14:55:00,30.0,3.7,29.68,NNW,340,8.0,10.0,32,0.00,,,0.00,Wunderground v.1.15,2013-02-17 19:55:00,
2013-02-17 15:05:00,30.0,0.8,29.69,West,281,6.0,9.0,28,0.00,,,0.00,Wunderground v.1.15,2013-02-17 20:05:00,
2013-02-17 15:15:00,29.0,1.4,29.69,WNW,302,6.0,12.0,30,0.00,,,0.00,Wunderground v.1.15,2013-02-17 20:15:00,
2013-02-17 15:25:00,28.5,0.9,29.70,WSW,250,8.0,8.0,30,0.00,,,0.00,Wunderground v.1.15,2013-02-17 20:25:00,
2013-02-17 15:35:00,28.5,1.6,29.70,NNW,333,7.0,8.0,31,0.00,,,0.00,Wunderground v.1.15,2013-02-17 20:35:00,
2013-02-17 15:45:00,28.5,0.9,29.70,NNE,17,6.0,7.0,30,0.00,,,0.00,Wunderground v.1.15,2013-02-17 20:45:00,
2013-02-17 15:55:00,28.2,1.4,29.70,NNW,344,7.0,7.0,31,0.00,,,0.00,Wunderground v.1.15,2013-02-17 20:55:00,
2013-02-17 16:05:00,27.6,1.5,29.71,WSW,252,7.0,9.0,32,0.00,,,0.00,Wunderground v.1.15,2013-02-17 21:05:00,
2013-02-17 16:15:00,27.6,1.5,29.71,WNW,302,6.0,8.0,32,0.00,,,0.00,Wunderground v.1.15,2013-02-17 21:15:00,
2013-02-17 16:25:00,27.2,0.5,29.72,NNW,327,9.0,9.0,31,0.00,,,0.00,Wunderground v.1.15,2013-02-17 21:25:00,
2013-02-17 16:35:00,26.9,2.2,29.73,NW,307,6.0,16.0,34,0.00,,,0.00,Wunderground v.1.15,2013-02-17 21:35:00,
2013-02-17 16:45:00,26.4,1.8,29.73,West,274,6.0,6.0,34,0.00,,,0.00,Wunderground v.1.15,2013-02-17 21:45:00,
2013-02-17 16:55:00,26.0,1.4,29.73,NNW,333,6.0,6.0,34,0.00,,,0.00,Wunderground v.1.15,2013-02-17 21:55:00,
2013-02-17 17:05:00,25.8,3.1,29.74,NNE,13,6.0,7.0,37,0.00,,,0.00,Wunderground v.1.15,2013-02-17 22:05:00,
2013-02-17 17:15:00,25.4,2.7,29.74,NW,312,6.0,12.0,37,0.00,,,0.00,Wunderground v.1.15,2013-02-17 22:15:00,
2013-02-17 17:25:00,25.0,3.5,29.75,NNW,333,7.0,7.0,39,0.00,,,0.00,Wunderground v.1.15,2013-02-17 22:25:00,
2013-02-17 17:40:00,24.5,2.5,29.76,WNW,288,5.0,5.0,38,0.00,,,0.00,Wunderground v.1.15,2013-02-17 22:40:00,
2013-02-17 17:45:00,24.5,2.5,29.76,West,278,5.0,5.0,38,0.00,,,0.00,Wunderground v.1.15,2013-02-17 22:45:00,
2013-02-17 17:55:00,24.4,2.4,29.77,NE,37,6.0,6.0,38,0.00,,,0.00,Wunderground v.1.15,2013-02-17 22:55:00,
2013-02-17 18:05:00,24.1,2.1,29.79,NNW,334,5.0,9.0,38,0.00,,,0.00,Wunderground v.1.15,2013-02-17 23:05:00,
2013-02-17 18:15:00,23.9,0.8,29.79,NW,306,6.0,6.0,36,0.00,,,0.00,Wunderground v.1.15,2013-02-17 23:15:00,
2013-02-17 18:25:00,23.8,0.7,29.80,West,268,7.0,12.0,36,0.00,,,0.00,Wunderground v.1.15,2013-02-17 23:25:00,
2013-02-17 18:35:00,23.3,0.8,29.81,West,281,6.0,10.0,37,0.00,,,0.00,Wunderground v.1.15,2013-02-17 23:35:00,
2013-02-17 18:45:00,22.9,1.0,29.81,NNW,333,5.0,9.0,38,0.00,,,0.00,Wunderground v.1.15,2013-02-17 23:45:00,
2013-02-17 18:55:00,22.7,2.5,29.82,NW,307,6.0,10.0,41,0.00,,,0.00,Wunderground v.1.15,2013-02-17 23:55:00,
2013-02-17 19:10:00,22.4,1.7,29.83,NW,316,6.0,6.0,40,0.00,,,0.00,Wunderground v.1.15,2013-02-18 00:10:00,
2013-02-17 19:15:00,22.2,2.0,29.83,North,5,6.0,9.0,41,0.00,,,0.00,Wunderground v.1.15,2013-02-18 00:15:00,
2013-02-17 19:25:00,22.1,3.5,29.84,NW,323,3.0,5.0,44,0.00,,,0.00,Wunderground v.1.15,2013-02-18 00:25:00,
2013-02-17 19:35:00,21.8,1.7,29.85,North,355,4.0,5.0,41,0.00,,,0.00,Wunderground v.1.15,2013-02-18 00:35:00,
2013-02-17 19:45:00,21.4,0.8,29.85,NW,311,5.0,8.0,40,0.00,,,0.00,Wunderground v.1.15,2013-02-18 00:45:00,
2013-02-17 19:55:00,21.0,0.9,29.86,North,355,7.0,12.0,41,0.00,,,0.00,Wunderground v.1.15,2013-02-18 00:55:00,
2013-02-17 20:05:00,20.5,0.5,29.87,NNW,342,6.0,6.0,41,0.00,,,0.00,Wunderground v.1.15,2013-02-18 01:05:00,
2013-02-17 20:15:00,20.3,-0.2,29.87,WNW,296,7.0,14.0,40,0.00,,,0.00,Wunderground v.1.15,2013-02-18 01:15:00,
2013-02-17 20:25:00,20.0,0.0,29.88,NW,304,7.0,9.0,41,0.00,,,0.00,Wunderground v.1.15,2013-02-18 01:25:00,
2013-02-17 20:35:00,19.5,0.1,29.89,WNW,292,7.0,7.0,42,0.00,,,0.00,Wunderground v.1.15,2013-02-18 01:35:00,
2013-02-17 20:45:00,19.1,0.2,29.89,WSW,240,5.0,6.0,43,0.00,,,0.00,Wunderground v.1.15,2013-02-18 01:45:00,
2013-02-17 20:55:00,18.8,1.4,29.90,NW,317,5.0,5.0,46,0.00,,,0.00,Wunderground v.1.15,2013-02-18 01:55:00,
2013-02-17 21:05:00,18.4,0.6,29.91,NNW,331,5.0,5.0,45,0.00,,,0.00,Wunderground v.1.15,2013-02-18 02:05:00,
2013-02-17 21:15:00,18.3,0.5,29.91,NW,309,4.0,5.0,45,0.00,,,0.00,Wunderground v.1.15,2013-02-18 02:15:00,
2013-02-17 21:25:00,18.0,0.2,29.92,WNW,285,5.0,5.0,45,0.00,,,0.00,Wunderground v.1.15,2013-02-18 02:25:00,
2013-02-17 21:35:00,17.8,0.5,29.92,West,279,4.0,6.0,46,0.00,,,0.00,Wunderground v.1.15,2013-02-18 02:35:00,
2013-02-17 21:45:00,17.5,0.7,29.92,WNW,285,3.0,5.0,47,0.00,,,0.00,Wunderground v.1.15,2013-02-18 02:45:00,
2013-02-17 21:55:00,17.2,0.8,29.93,NW,307,4.0,5.0,48,0.00,,,0.00,Wunderground v.1.15,2013-02-18 02:55:00,
2013-02-17 22:05:00,17.0,-0.3,29.93,WNW,291,3.0,4.0,46,0.00,,,0.00,Wunderground v.1.15,2013-02-18 03:05:00,
2013-02-17 22:15:00,17.0,0.2,29.93,NW,326,5.0,5.0,47,0.00,,,0.00,Wunderground v.1.15,2013-02-18 03:15:00,
2013-02-17 22:25:00,17.0,-0.3,29.93,West,269,5.0,6.0,46,0.00,,,0.00,Wunderground v.1.15,2013-02-18 03:25:00,
2013-02-17 22:35:00,17.0,0.2,29.94,WNW,285,4.0,4.0,47,0.00,,,0.00,Wunderground v.1.15,2013-02-18 03:35:00,
2013-02-17 22:45:00,17.0,0.2,29.94,WNW,288,4.0,6.0,47,0.00,,,0.00,Wunderground v.1.15,2013-02-18 03:45:00,
2013-02-17 22:55:00,17.0,0.7,29.94,WNW,290,5.0,6.0,48,0.00,,,0.00,Wunderground v.1.15,2013-02-18 03:55:00,
2013-02-17 23:05:00,17.0,1.1,29.94,NW,307,4.0,5.0,49,0.00,,,0.00,Wunderground v.1.15,2013-02-18 04:05:00,
2013-02-17 23:15:00,17.2,0.8,29.94,NNW,335,4.0,4.0,48,0.00,,,0.00,Wunderground v.1.15,2013-02-18 04:15:00,
2013-02-17 23:25:00,17.2,0.4,29.95,NE,56,4.0,5.0,47,0.00,,,0.00,Wunderground v.1.15,2013-02-18 04:25:00,
2013-02-17 23:35:00,17.2,0.4,29.96,West,274,4.0,5.0,47,0.00,,,0.00,Wunderground v.1.15,2013-02-18 04:35:00,
2013-02-17 23:45:00,17.3,1.4,29.96,NW,306,3.0,3.0,49,0.00,,,0.00,Wunderground v.1.15,2013-02-18 04:45:00,
2013-02-17 23:55:00,17.3,1.4,29.96,West,278,3.0,6.0,49,0.00,,,0.00,Wunderground v.1.15,2013-02-18 04:55:00,